Cordova Municipal Airport


Codes: CKU/CKU
Name: Cordova Municipal Airport
City: Cordova
Country: United States
Elevation: 12 ft.
Wikipedia:

Photos at Cordova Municipal Airport


   Photos courtesy of SpottingLog. You can add your own sightings and photos by signing up for a free trial today.



No photos found.

Weather at Cordova Municipal Airport


Time (UTC)DescriptionTempratureWindCloud coverageVisibilityPressureHumidity
16-Jun-2024 09:00Light Rain11°C2 mph, N0%8116m1020hPa76%
16-Jun-2024 12:00Clear Sky11°C2 mph, N10%10000m1020hPa81%
16-Jun-2024 15:00Few Clouds12°C2 mph, NW12%10000m1020hPa82%
16-Jun-2024 18:00Few Clouds16°C2 mph, W14%10000m1019hPa73%
16-Jun-2024 21:00Clear Sky18°C4 mph, SW9%10000m1019hPa65%
17-Jun-2024 00:00Clear Sky19°C7 mph, SW10%10000m1018hPa63%
17-Jun-2024 03:00Few Clouds17°C7 mph, SW11%10000m1018hPa66%
17-Jun-2024 06:00Clear Sky14°C2 mph, W8%10000m1018hPa81%
17-Jun-2024 09:00Clear Sky12°C2 mph, N9%5333m1018hPa89%
17-Jun-2024 12:00Few Clouds11°C2 mph, NE12%3344m1017hPa92%
17-Jun-2024 15:00Few Clouds13°C0 mph, N12%10000m1017hPa83%
17-Jun-2024 18:00Clear Sky16°C2 mph, SW10%10000m1017hPa69%
17-Jun-2024 21:00Clear Sky18°C4 mph, SW8%10000m1016hPa61%
18-Jun-2024 00:00Clear Sky18°C7 mph, SW7%10000m1016hPa60%
18-Jun-2024 03:00Clear Sky16°C7 mph, SW2%10000m1016hPa70%
18-Jun-2024 06:00Clear Sky13°C2 mph, SW4%10000m1016hPa85%
18-Jun-2024 09:00Few Clouds10°C2 mph, N11%10000m1016hPa96%
18-Jun-2024 12:00Few Clouds10°C2 mph, NE19%10000m1016hPa93%
18-Jun-2024 15:00Scattered Clouds12°C0 mph, NW25%10000m1016hPa86%
18-Jun-2024 18:00Scattered Clouds14°C4 mph, SW29%10000m1016hPa73%
18-Jun-2024 21:00Few Clouds15°C7 mph, SW12%10000m1016hPa64%
19-Jun-2024 00:00Clear Sky16°C7 mph, SW9%10000m1016hPa60%
19-Jun-2024 03:00Scattered Clouds15°C4 mph, W49%10000m1016hPa58%
19-Jun-2024 06:00Broken Clouds12°C2 mph, W53%10000m1016hPa71%
19-Jun-2024 09:00Broken Clouds10°C2 mph, N74%10000m1016hPa76%
19-Jun-2024 12:00Scattered Clouds9°C2 mph, NE48%10000m1016hPa78%
19-Jun-2024 15:00Clear Sky11°C2 mph, NE9%10000m1015hPa68%
19-Jun-2024 18:00Clear Sky14°C2 mph, S8%10000m1015hPa57%
19-Jun-2024 21:00Few Clouds16°C7 mph, S17%10000m1015hPa55%
20-Jun-2024 00:00Few Clouds16°C4 mph, S13%10000m1015hPa54%
20-Jun-2024 03:00Scattered Clouds15°C4 mph, S42%10000m1015hPa59%
20-Jun-2024 06:00Broken Clouds12°C2 mph, SE65%10000m1015hPa73%
20-Jun-2024 09:00Overcast Clouds11°C2 mph, NE100%10000m1015hPa79%
20-Jun-2024 12:00Overcast Clouds10°C2 mph, NE100%10000m1014hPa80%
20-Jun-2024 15:00Overcast Clouds11°C0 mph, E100%10000m1014hPa77%
20-Jun-2024 18:00Overcast Clouds14°C2 mph, S99%10000m1013hPa68%
20-Jun-2024 21:00Light Rain14°C7 mph, S100%10000m1014hPa69%
21-Jun-2024 00:00Light Rain13°C4 mph, S100%10000m1014hPa75%
21-Jun-2024 03:00Light Rain12°C4 mph, S100%10000m1014hPa83%
21-Jun-2024 06:00Light Rain11°C2 mph, NE100%10000m1015hPa89%